createdAt,value
2022-08-26T00:02:12.609Z,101046.81
2022-08-26T00:04:41.631Z,101046.63
2022-08-26T00:07:12.083Z,101038.84
2022-08-26T00:09:40.546Z,101031.44
2022-08-26T00:12:12.373Z,101029.38
2022-08-26T00:14:41.767Z,101024.25
2022-08-26T00:17:10.307Z,101022.56
2022-08-26T00:19:38.746Z,101027.94
2022-08-26T00:22:07.278Z,101017.53
2022-08-26T00:24:36.806Z,101022.63
2022-08-26T00:27:06.461Z,101024.72
2022-08-26T00:29:37.524Z,101020.63
2022-08-26T00:32:06.803Z,101019.66
2022-08-26T00:34:35.767Z,101022.22
2022-08-26T00:37:04.564Z,101028.03
2022-08-26T00:39:39.463Z,101028.06
2022-08-26T00:42:08.599Z,101032.44
2022-08-26T00:44:37.259Z,101030.28
2022-08-26T00:47:10.631Z,101029.44
2022-08-26T00:49:42.379Z,101028.91
2022-08-26T00:52:14.620Z,101030.63
2022-08-26T00:54:50.019Z,101035.59
2022-08-26T00:57:19.894Z,101041.97
2022-08-26T00:59:51.866Z,101055.25
2022-08-26T01:02:21.482Z,101041.69
2022-08-26T01:04:55.445Z,101041.25
2022-08-26T01:07:27.434Z,101031.59
2022-08-26T01:09:58.384Z,101026.38
2022-08-26T01:12:30.236Z,101018.13
2022-08-26T01:14:58.525Z,101024.94
2022-08-26T01:17:26.938Z,101016.47
2022-08-26T01:20:01.007Z,101025.50
2022-08-26T01:22:35.201Z,101013.06
2022-08-26T01:25:06.871Z,101021.00
2022-08-26T01:27:36.803Z,101015.19
2022-08-26T01:30:06.550Z,101009.25
2022-08-26T01:32:36.284Z,101008.81
2022-08-26T01:35:08.679Z,101013.34
2022-08-26T01:37:40.432Z,101009.97
2022-08-26T01:40:16.919Z,101007.53
2022-08-26T01:42:46.957Z,101015.63
2022-08-26T01:45:19.471Z,101022.97
2022-08-26T01:47:49.774Z,101034.59
2022-08-26T01:50:30.629Z,101031.59
2022-08-26T01:53:02.336Z,101024.13
2022-08-26T01:55:34.184Z,101029.81
2022-08-26T01:58:06.178Z,101029.91
2022-08-26T02:00:36.146Z,101021.84
2022-08-26T02:03:18.287Z,101021.13
2022-08-26T02:05:51.259Z,101020.72
2022-08-26T02:08:24.874Z,101016.75
2022-08-26T02:10:55.644Z,101021.69
2022-08-26T02:13:27.362Z,101013.66
2022-08-26T02:15:56.346Z,101021.00
2022-08-26T02:18:25.776Z,101020.84
2022-08-26T02:20:55.155Z,101024.94
2022-08-26T02:23:24.059Z,101022.28
2022-08-26T02:25:59.770Z,101029.63
2022-08-26T02:28:31.928Z,101022.97
2022-08-26T02:31:00.131Z,101040.81
2022-08-26T02:33:30.911Z,101052.69
2022-08-26T02:35:59.106Z,101049.72
2022-08-26T02:38:27.752Z,101053.38
2022-08-26T02:40:57.336Z,101055.81
2022-08-26T02:43:31.554Z,101050.56
2022-08-26T02:46:02.362Z,101039.50
2022-08-26T02:48:31.404Z,101044.47
2022-08-26T02:51:00.996Z,101060.03
2022-08-26T02:53:32.070Z,101070.53
2022-08-26T02:56:08.229Z,101069.16
2022-08-26T02:58:36.769Z,101063.47
2022-08-26T03:01:05.810Z,101060.09
2022-08-26T03:03:34.946Z,101060.09
2022-08-26T03:06:03.108Z,101056.66
2022-08-26T03:08:31.275Z,101051.00
2022-08-26T03:10:59.485Z,101052.16
2022-08-26T03:13:31.532Z,101050.16
2022-08-26T03:16:02.211Z,101061.34
2022-08-26T03:18:30.436Z,101054.44
2022-08-26T03:20:58.690Z,101049.69
2022-08-26T03:23:26.859Z,101059.34
2022-08-26T03:25:55.660Z,101048.72
2022-08-26T03:28:24.242Z,101044.63
2022-08-26T03:30:57.048Z,101049.28
2022-08-26T03:33:26.606Z,101044.44
2022-08-26T03:35:55.657Z,101043.34
2022-08-26T03:38:26.095Z,101042.38
2022-08-26T03:40:56.255Z,101044.75
2022-08-26T03:43:26.853Z,101042.91
2022-08-26T03:45:55.142Z,101050.97
2022-08-26T03:48:24.649Z,101048.44
2022-08-26T03:50:53.032Z,101046.16
2022-08-26T03:53:21.616Z,101045.31
2022-08-26T03:55:51.881Z,101051.84
2022-08-26T03:58:20.867Z,101053.72
2022-08-26T04:00:50.029Z,101058.06
2022-08-26T04:03:40.098Z,101058.06
2022-08-26T04:06:09.102Z,101054.13
2022-08-26T04:08:38.527Z,101063.88
2022-08-26T04:11:07.336Z,101058.66
2022-08-26T04:13:35.893Z,101061.63
2022-08-26T04:16:04.634Z,101064.41
2022-08-26T04:18:37.300Z,101052.94
2022-08-26T04:21:09.771Z,101047.19
2022-08-26T04:23:46.955Z,101045.63
2022-08-26T04:26:16.767Z,101047.31
2022-08-26T04:28:45.062Z,101059.22
2022-08-26T04:31:14.691Z,101057.47
2022-08-26T04:33:46.635Z,101055.22
2022-08-26T04:36:15.632Z,101056.53
2022-08-26T04:38:45.771Z,101051.25
2022-08-26T04:41:15.643Z,101050.38
2022-08-26T04:43:46.630Z,101036.78
2022-08-26T04:46:19.842Z,101034.78
2022-08-26T04:48:51.012Z,101033.25
2022-08-26T04:51:20.968Z,101034.22
2022-08-26T04:53:49.236Z,101037.34
2022-08-26T04:56:18.466Z,101029.72
2022-08-26T04:58:46.622Z,101043.09
2022-08-26T05:01:14.837Z,101040.13
2022-08-26T05:03:43.494Z,101035.03
2022-08-26T05:06:13.352Z,101033.28
2022-08-26T05:08:41.629Z,101026.31
2022-08-26T05:11:10.554Z,101026.59
2022-08-26T05:13:39.615Z,101038.66
2022-08-26T05:16:11.561Z,101030.75
2022-08-26T05:18:43.489Z,101029.41
2022-08-26T05:21:22.527Z,101032.09
2022-08-26T05:23:52.351Z,101021.91
2022-08-26T05:26:22.918Z,101027.50
2022-08-26T05:28:54.742Z,101018.31
2022-08-26T05:31:26.615Z,101017.41
2022-08-26T05:33:55.991Z,101009.94
2022-08-26T05:36:28.579Z,101007.56
2022-08-26T05:38:58.114Z,101000.78
2022-08-26T05:41:34.332Z,100994.38
2022-08-26T05:44:07.327Z,100993.19
2022-08-26T05:46:36.804Z,100993.69
2022-08-26T05:49:12.456Z,100984.28
2022-08-26T05:51:47.503Z,100983.25
2022-08-26T05:54:21.770Z,100979.47
2022-08-26T05:56:51.427Z,100987.09
2022-08-26T05:59:21.407Z,100982.06
2022-08-26T06:01:53.657Z,100977.16
2022-08-26T06:04:23.109Z,100976.16
2022-08-26T06:06:56.261Z,100966.34
2022-08-26T06:09:24.886Z,100978.91
2022-08-26T06:11:53.632Z,100993.56
2022-08-26T06:14:22.982Z,101002.13
2022-08-26T06:16:51.149Z,100999.19
2022-08-26T06:19:19.382Z,100995.69
2022-08-26T06:21:54.147Z,100993.81
2022-08-26T06:24:41.957Z,100979.09
2022-08-26T06:27:13.697Z,100979.31
2022-08-26T06:29:42.593Z,100977.41
2022-08-26T06:32:10.762Z,100978.78
2022-08-26T06:34:39.206Z,100969.16
2022-08-26T06:37:08.783Z,100966.28
2022-08-26T06:39:41.081Z,100965.34
2022-08-26T06:42:10.999Z,100952.50
2022-08-26T06:44:41.190Z,100953.31
2022-08-26T06:47:09.575Z,100949.19
2022-08-26T06:49:38.149Z,100938.69
2022-08-26T06:52:08.005Z,100937.94
2022-08-26T06:54:43.034Z,100934.91
2022-08-26T06:57:11.806Z,100926.91
2022-08-26T06:59:40.162Z,100929.00
2022-08-26T07:02:08.481Z,100922.31
2022-08-26T07:04:36.804Z,100915.53
2022-08-26T07:07:05.311Z,100919.41
2022-08-26T07:09:35.364Z,100911.13
2022-08-26T07:12:07.454Z,100901.44
2022-08-26T07:14:35.877Z,100905.66
2022-08-26T07:17:04.069Z,100894.78
2022-08-26T07:19:32.268Z,100891.16
2022-08-26T07:22:03.510Z,100892.78
2022-08-26T07:24:32.992Z,100885.91
2022-08-26T07:27:03.045Z,100890.19
2022-08-26T07:29:36.219Z,100879.06
2022-08-26T07:32:05.374Z,100883.06
2022-08-26T07:34:33.687Z,100881.56
2022-08-26T07:37:02.191Z,100875.13
2022-08-26T07:39:32.817Z,100873.94
2022-08-26T07:42:01.616Z,100863.69
2022-08-26T07:44:37.265Z,100862.94
2022-08-26T07:47:10.063Z,100859.66
2022-08-26T07:49:52.916Z,100860.78
2022-08-26T07:52:26.159Z,100863.88
2022-08-26T07:54:55.730Z,100858.66
2022-08-26T07:57:24.254Z,100859.16
2022-08-26T07:59:55.557Z,100860.91
2022-08-26T08:02:24.986Z,100857.34
2022-08-26T08:04:54.525Z,100849.94
2022-08-26T08:07:38.584Z,100856.31
2022-08-26T08:10:14.328Z,100855.25
2022-08-26T08:12:43.636Z,100848.66
2022-08-26T08:15:14.378Z,100848.66
2022-08-26T08:17:43.853Z,100848.97
2022-08-26T08:20:14.193Z,100850.91
2022-08-26T08:22:43.083Z,100847.75
2022-08-26T08:25:12.410Z,100842.09
2022-08-26T08:27:42.973Z,100841.25
2022-08-26T08:30:13.783Z,100841.50
2022-08-26T08:32:43.525Z,100839.38
2022-08-26T08:35:13.420Z,100833.09
2022-08-26T08:37:42.424Z,100836.84
2022-08-26T08:40:18.267Z,100832.34
2022-08-26T08:45:30.449Z,100822.56
2022-08-26T08:48:02.144Z,100821.13
2022-08-26T08:50:33.814Z,100817.03
2022-08-26T08:53:10.762Z,100818.22
2022-08-26T08:55:49.797Z,100810.88
2022-08-26T08:58:21.793Z,100815.66
2022-08-26T09:00:58.321Z,100809.25
2022-08-26T09:03:41.657Z,100805.69
2022-08-26T09:06:17.437Z,100812.72
2022-08-26T09:08:50.044Z,100816.25
2022-08-26T09:11:20.041Z,100816.75
2022-08-26T09:13:51.260Z,100810.25
2022-08-26T09:16:25.197Z,100814.66
2022-08-26T09:19:11.184Z,100809.44
2022-08-26T09:21:39.597Z,100807.31
2022-08-26T09:24:08.789Z,100822.25
2022-08-26T09:26:47.380Z,100813.84
2022-08-26T09:29:23.205Z,100805.22
2022-08-26T09:32:13.883Z,100808.25
2022-08-26T09:34:55.232Z,100807.88
2022-08-26T09:37:35.570Z,100814.13
2022-08-26T09:40:30.094Z,100814.97
2022-08-26T09:43:16.023Z,100797.53
2022-08-26T09:45:58.382Z,100810.38
2022-08-26T09:48:36.239Z,100805.38
2022-08-26T09:51:07.828Z,100802.41
2022-08-26T09:53:43.751Z,100795.31
2022-08-26T09:56:16.388Z,100790.69
2022-08-26T09:58:47.141Z,100791.50
2022-08-26T10:01:18.093Z,100783.09
2022-08-26T10:03:49.178Z,100780.91
2022-08-26T10:06:26.703Z,100775.09
2022-08-26T10:08:59.010Z,100775.13
2022-08-26T10:11:35.134Z,100774.69
2022-08-26T10:14:09.079Z,100770.91
2022-08-26T10:16:48.573Z,100770.91
2022-08-26T10:19:22.318Z,100759.16
2022-08-26T10:21:54.893Z,100755.78
2022-08-26T10:24:30.351Z,100750.19
2022-08-26T10:27:05.211Z,100748.88
2022-08-26T10:29:39.121Z,100740.94
2022-08-26T10:32:13.807Z,100738.81
2022-08-26T10:34:44.941Z,100731.56
2022-08-26T10:37:16.853Z,100729.00
2022-08-26T10:39:57.128Z,100727.13
2022-08-26T10:42:33.416Z,100712.47
2022-08-26T10:45:11.902Z,100719.56
2022-08-26T10:47:49.523Z,100710.81
2022-08-26T10:50:20.481Z,100701.31
2022-08-26T10:52:59.511Z,100711.22
2022-08-26T10:55:36.468Z,100705.84
2022-08-26T10:58:26.183Z,100691.31
2022-08-26T11:01:22.852Z,100697.44
2022-08-26T11:04:00.376Z,100693.41
2022-08-26T11:06:31.589Z,100694.69
2022-08-26T11:09:01.549Z,100688.59
2022-08-26T11:11:46.820Z,100685.34
2022-08-26T11:14:53.602Z,100673.22
2022-08-26T11:17:56.673Z,100661.31
2022-08-26T11:20:41.613Z,100653.91
2022-08-26T11:23:50.454Z,100656.03
2022-08-26T11:26:36.134Z,100652.91
2022-08-26T11:29:56.691Z,100655.00
2022-08-26T11:32:27.742Z,100646.75
2022-08-26T11:34:58.372Z,100642.41
2022-08-26T11:37:33.812Z,100632.50
2022-08-26T11:40:07.704Z,100629.88
2022-08-26T11:42:42.730Z,100618.72
2022-08-26T11:45:25.488Z,100612.22
2022-08-26T11:47:54.677Z,100602.56
2022-08-26T11:50:26.485Z,100608.59
2022-08-26T11:52:56.719Z,100602.16
2022-08-26T11:55:26.831Z,100593.19
2022-08-26T11:57:57.623Z,100602.03
2022-08-26T12:00:33.529Z,100589.06
2022-08-26T12:03:08.743Z,100592.16
2022-08-26T12:05:43.148Z,100592.53
2022-08-26T12:08:17.355Z,100599.16
2022-08-26T12:10:48.239Z,100594.41
2022-08-26T12:13:23.016Z,100595.84
2022-08-26T12:15:56.011Z,100597.38
2022-08-26T12:18:29.434Z,100590.13
2022-08-26T12:21:02.342Z,100581.00
2022-08-26T12:23:43.247Z,100585.91
2022-08-26T12:26:21.549Z,100565.34
2022-08-26T12:28:54.211Z,100552.53
2022-08-26T12:31:25.853Z,100548.94
2022-08-26T12:33:55.557Z,100540.91
2022-08-26T12:36:27.586Z,100549.28
2022-08-26T12:38:58.478Z,100550.84
2022-08-26T12:41:50.574Z,100558.66
2022-08-26T12:44:53.854Z,100544.28
2022-08-26T12:47:33.880Z,100546.81
2022-08-26T12:50:20.071Z,100549.28
2022-08-26T12:53:00.255Z,100559.84
2022-08-26T12:55:37.599Z,100557.63
2022-08-26T12:58:23.411Z,100543.72
2022-08-26T13:00:52.997Z,100549.69
2022-08-26T13:03:44.776Z,100553.97
2022-08-26T13:06:25.754Z,100552.16
2022-08-26T13:08:56.447Z,100554.78
2022-08-26T13:11:26.927Z,100544.38
2022-08-26T13:14:00.015Z,100552.47
2022-08-26T13:16:28.662Z,100541.34
2022-08-26T13:18:59.191Z,100531.38
2022-08-26T13:21:29.774Z,100529.63
2022-08-26T13:24:08.203Z,100518.25
2022-08-26T13:26:36.624Z,100518.97
2022-08-26T13:29:10.185Z,100508.56
2022-08-26T13:31:41.057Z,100511.69
2022-08-26T13:34:11.664Z,100511.72
2022-08-26T13:36:39.907Z,100521.00
2022-08-26T13:39:08.235Z,100516.22
2022-08-26T13:41:36.696Z,100514.31
2022-08-26T13:44:06.733Z,100521.13
2022-08-26T13:46:35.235Z,100522.03
2022-08-26T13:49:04.011Z,100543.41
2022-08-26T13:51:32.639Z,100520.91
2022-08-26T13:54:01.484Z,100538.66
2022-08-26T13:56:31.002Z,100533.22
2022-08-26T13:59:01.173Z,100534.31
2022-08-26T14:01:32.318Z,100523.97
2022-08-26T14:04:00.662Z,100513.81
2022-08-26T14:06:28.837Z,100530.25
2022-08-26T14:08:57.021Z,100539.88
2022-08-26T14:11:25.630Z,100527.56
2022-08-26T14:13:53.804Z,100534.09
2022-08-26T14:16:25.768Z,100534.03
2022-08-26T14:18:55.494Z,100531.53
2022-08-26T14:21:26.387Z,100517.94
2022-08-26T14:23:59.004Z,100506.56
2022-08-26T14:26:30.098Z,100509.38
2022-08-26T14:28:59.526Z,100508.94
2022-08-26T14:31:29.347Z,100514.19
2022-08-26T14:34:02.295Z,100510.63
2022-08-26T14:36:32.062Z,100500.78
2022-08-26T14:39:03.252Z,100486.63
2022-08-26T14:41:32.977Z,100507.75
2022-08-26T14:44:05.087Z,100510.59
2022-08-26T14:46:40.268Z,100512.06
2022-08-26T14:49:10.836Z,100512.13
2022-08-26T14:51:39.550Z,100516.03
2022-08-26T14:54:13.690Z,100505.59
2022-08-26T14:56:45.807Z,100515.56
2022-08-26T14:59:15.742Z,100520.34
2022-08-26T15:01:44.062Z,100541.75
2022-08-26T15:04:14.138Z,100557.31
2022-08-26T15:06:42.365Z,100571.22
2022-08-26T15:09:11.535Z,100569.34
2022-08-26T15:11:39.795Z,100556.09
2022-08-26T15:14:08.701Z,100552.97
2022-08-26T15:16:48.298Z,100577.19
2022-08-26T15:19:18.688Z,100575.78
2022-08-26T15:21:47.311Z,100575.47
2022-08-26T15:24:17.606Z,100579.72
2022-08-26T15:26:46.868Z,100611.13
2022-08-26T15:29:15.741Z,100625.41
2022-08-26T15:31:43.984Z,100635.75
2022-08-26T15:34:16.694Z,100628.97
2022-08-26T15:36:47.955Z,100637.16
2022-08-26T15:39:17.893Z,100633.63
2022-08-26T15:41:46.463Z,100623.59
2022-08-26T15:44:18.525Z,100627.13
2022-08-26T15:46:48.638Z,100646.53
2022-08-26T15:49:18.642Z,100645.56
2022-08-26T15:51:50.407Z,100637.94
2022-08-26T15:54:22.485Z,100637.81
2022-08-26T15:56:52.201Z,100638.72
2022-08-26T15:59:22.558Z,100642.97
2022-08-26T16:01:50.957Z,100635.91
2022-08-26T16:04:19.297Z,100627.31
2022-08-26T16:06:50.271Z,100631.41
2022-08-26T16:09:20.220Z,100636.97
2022-08-26T16:11:48.391Z,100637.66
2022-08-26T16:14:16.787Z,100633.25
2022-08-26T16:16:45.062Z,100633.94
2022-08-26T16:19:13.759Z,100631.41
2022-08-26T16:21:43.154Z,100623.59
2022-08-26T16:24:13.138Z,100614.16
2022-08-26T16:26:42.887Z,100607.25
2022-08-26T16:29:13.807Z,100618.38
2022-08-26T16:31:42.699Z,100616.53
2022-08-26T16:34:11.318Z,100606.06
2022-08-26T16:36:40.627Z,100598.16
2022-08-26T16:39:09.859Z,100606.22
2022-08-26T16:41:39.590Z,100604.19
2022-08-26T16:44:08.751Z,100609.44
2022-08-26T16:46:37.065Z,100614.34
2022-08-26T16:49:05.528Z,100610.63
2022-08-26T16:51:37.651Z,100618.38
2022-08-26T16:54:08.119Z,100628.84
2022-08-26T16:56:37.374Z,100648.94
2022-08-26T16:59:10.508Z,100643.91
2022-08-26T17:01:38.914Z,100646.22
2022-08-26T17:04:07.126Z,100648.91
2022-08-26T17:06:35.381Z,100669.00
2022-08-26T17:09:03.554Z,100667.28
2022-08-26T17:11:31.955Z,100659.03
2022-08-26T17:14:00.371Z,100664.75
2022-08-26T17:16:30.038Z,100663.78
2022-08-26T17:18:59.315Z,100676.97
2022-08-26T17:21:28.912Z,100676.47
2022-08-26T17:23:57.248Z,100681.97
2022-08-26T17:26:25.428Z,100678.63
2022-08-26T17:28:53.958Z,100687.69
2022-08-26T17:31:24.047Z,100691.16
2022-08-26T17:33:55.419Z,100684.75
2022-08-26T17:36:27.785Z,100686.13
2022-08-26T17:38:57.787Z,100684.25
2022-08-26T17:41:27.054Z,100683.06
2022-08-26T17:43:55.839Z,100687.03
2022-08-26T17:46:24.730Z,100686.91
2022-08-26T17:48:54.276Z,100695.81
2022-08-26T17:51:23.511Z,100683.88
2022-08-26T17:53:52.911Z,100654.09
2022-08-26T17:56:25.450Z,100640.50
2022-08-26T17:58:54.703Z,100641.63
2022-08-26T18:01:27.507Z,100656.13
2022-08-26T18:04:00.386Z,100654.59
2022-08-26T18:06:31.254Z,100645.91
2022-08-26T18:08:59.944Z,100634.38
2022-08-26T18:11:29.475Z,100635.69
2022-08-26T18:13:57.747Z,100642.56
2022-08-26T18:16:26.103Z,100630.56
2022-08-26T18:18:54.995Z,100607.44
2022-08-26T18:21:26.679Z,100597.59
2022-08-26T18:23:55.845Z,100585.75
2022-08-26T18:26:27.296Z,100568.38
2022-08-26T18:28:55.606Z,100560.16
2022-08-26T18:31:24.458Z,100544.63
2022-08-26T18:33:52.993Z,100548.00
2022-08-26T18:36:24.906Z,100544.97
2022-08-26T18:38:54.059Z,100548.19
2022-08-26T18:41:24.490Z,100547.66
2022-08-26T18:43:54.264Z,100551.94
2022-08-26T18:46:25.824Z,100562.75
2022-08-26T18:48:55.102Z,100573.31
2022-08-26T18:51:27.158Z,100583.13
2022-08-26T18:53:55.315Z,100586.13
2022-08-26T18:56:23.920Z,100594.25
2022-08-26T18:58:52.373Z,100596.41
2022-08-26T19:01:25.515Z,100596.50
2022-08-26T19:03:55.696Z,100605.63
2022-08-26T19:06:26.170Z,100622.34
2022-08-26T19:08:54.670Z,100624.28
2022-08-26T19:11:31.610Z,100629.25
2022-08-26T19:14:00.889Z,100635.19
2022-08-26T19:16:30.671Z,100633.81
2022-08-26T19:19:00.595Z,100648.88
2022-08-26T19:21:30.607Z,100654.47
2022-08-26T19:23:59.957Z,100664.00
2022-08-26T19:26:29.299Z,100674.47
2022-08-26T19:28:57.540Z,100676.63
2022-08-26T19:31:25.879Z,100688.97
2022-08-26T19:33:54.121Z,100699.06
2022-08-26T19:36:24.763Z,100701.94
2022-08-26T19:38:55.805Z,100703.09
2022-08-26T19:41:36.582Z,100715.44
2022-08-26T19:44:08.239Z,100720.00
2022-08-26T19:49:10.413Z,100722.66
2022-08-26T19:51:38.606Z,100729.97
2022-08-26T19:54:08.305Z,100726.97
2022-08-26T19:56:36.542Z,100734.72
2022-08-26T19:59:04.814Z,100735.84
2022-08-26T20:01:33.063Z,100735.94
2022-08-26T20:04:01.327Z,100728.03
2022-08-26T20:06:29.542Z,100740.44
2022-08-26T20:08:58.116Z,100745.09
2022-08-26T20:11:27.661Z,100750.16
2022-08-26T20:13:55.818Z,100757.97
2022-08-26T20:16:24.139Z,100758.44
2022-08-26T20:19:10.129Z,100762.53
2022-08-26T20:21:40.072Z,100752.69
2022-08-26T20:24:10.541Z,100746.88
2022-08-26T20:26:42.275Z,100753.81
2022-08-26T20:29:12.592Z,100748.09
2022-08-26T20:31:42.319Z,100735.28
2022-08-26T20:34:11.078Z,100735.06
2022-08-26T20:36:41.234Z,100736.59
2022-08-26T20:39:10.770Z,100735.78
2022-08-26T20:41:41.020Z,100722.84
2022-08-26T20:44:09.549Z,100717.50
2022-08-26T20:46:38.800Z,100730.72
2022-08-26T20:49:07.905Z,100732.72
2022-08-26T20:51:38.467Z,100731.44
2022-08-26T20:54:07.631Z,100732.59
2022-08-26T20:56:36.537Z,100739.28
2022-08-26T20:59:07.803Z,100739.22
2022-08-26T21:01:41.915Z,100750.47
2022-08-26T21:04:14.137Z,100756.81
2022-08-26T21:06:49.906Z,100774.25
2022-08-26T21:09:22.573Z,100765.69
2022-08-26T21:11:51.542Z,100768.41
2022-08-26T21:14:23.165Z,100767.78
2022-08-26T21:16:54.818Z,100767.28
2022-08-26T21:19:23.212Z,100763.38
2022-08-26T21:21:51.592Z,100768.22
2022-08-26T21:24:19.822Z,100775.16
2022-08-26T21:26:48.686Z,100790.25
2022-08-26T21:29:16.882Z,100802.41
2022-08-26T21:31:46.952Z,100796.88
2022-08-26T21:34:15.722Z,100810.03
2022-08-26T21:36:43.986Z,100804.88
2022-08-26T21:39:12.458Z,100809.19
2022-08-26T21:41:41.355Z,100806.13
2022-08-26T21:44:10.600Z,100802.72
2022-08-26T21:46:38.993Z,100794.22
2022-08-26T21:49:12.515Z,100784.53
2022-08-26T21:51:43.948Z,100781.63
2022-08-26T21:54:12.893Z,100806.19
2022-08-26T21:56:46.616Z,100826.28
2022-08-26T21:59:17.051Z,100819.41
2022-08-26T22:01:45.442Z,100810.72
2022-08-26T22:04:15.754Z,100810.53
2022-08-26T22:06:45.880Z,100816.16
2022-08-26T22:09:15.934Z,100816.44
2022-08-26T22:11:44.555Z,100821.50
2022-08-26T22:14:13.144Z,100813.22
2022-08-26T22:16:41.436Z,100799.91
2022-08-26T22:19:20.885Z,100803.53
2022-08-26T22:21:54.471Z,100815.72
2022-08-26T22:24:25.226Z,100808.34
2022-08-26T22:26:54.586Z,100817.94
2022-08-26T22:29:24.314Z,100816.91
2022-08-26T22:31:52.677Z,100820.91
2022-08-26T22:34:23.186Z,100810.06
2022-08-26T22:36:52.053Z,100810.91
2022-08-26T22:39:23.017Z,100816.44
2022-08-26T22:41:52.357Z,100814.25
2022-08-26T22:44:22.082Z,100811.81
2022-08-26T22:46:54.225Z,100801.00
2022-08-26T22:49:24.412Z,100808.97
2022-08-26T22:51:52.620Z,100800.97
2022-08-26T22:54:20.847Z,100803.97
2022-08-26T22:56:49.035Z,100814.97
2022-08-26T22:59:17.250Z,100812.97
2022-08-26T23:01:47.026Z,100803.88
2022-08-26T23:04:15.577Z,100809.25
2022-08-26T23:06:47.324Z,100817.78
2022-08-26T23:09:17.861Z,100815.56
2022-08-26T23:11:47.452Z,100823.75
2022-08-26T23:14:16.904Z,100822.13
2022-08-26T23:16:45.418Z,100818.84
2022-08-26T23:19:16.476Z,100808.50
2022-08-26T23:21:46.414Z,100783.91
2022-08-26T23:24:14.850Z,100771.53
2022-08-26T23:26:43.989Z,100752.91
2022-08-26T23:29:15.588Z,100754.84
2022-08-26T23:31:44.427Z,100755.16
2022-08-26T23:34:31.303Z,100761.13
2022-08-26T23:37:01.194Z,100774.66
2022-08-26T23:39:29.537Z,100777.88
2022-08-26T23:41:58.122Z,100796.25
2022-08-26T23:44:26.831Z,100799.81
2022-08-26T23:46:55.397Z,100799.69
2022-08-26T23:49:24.668Z,100780.53
2022-08-26T23:52:10.455Z,100780.16
2022-08-26T23:54:40.540Z,100760.13
2022-08-26T23:57:10.334Z,100756.28
2022-08-26T23:59:39.291Z,100759.63
